createdAt,value
2018-01-07T00:00:51.310Z,28.2
2018-01-07T00:01:49.382Z,28.2
2018-01-07T00:02:49.214Z,28.2
2018-01-07T00:03:49.218Z,28.2
2018-01-07T00:04:51.456Z,28.2
2018-01-07T00:05:49.558Z,28.2
2018-01-07T00:06:49.599Z,28.2
2018-01-07T00:07:51.558Z,28.2
2018-01-07T00:08:51.582Z,28.2
2018-01-07T00:09:49.724Z,28.2
2018-01-07T00:10:49.561Z,28.2
2018-01-07T00:11:49.533Z,28.2
2018-01-07T00:12:49.576Z,28.2
2018-01-07T00:13:49.555Z,28.2
2018-01-07T00:14:51.757Z,28.2
2018-01-07T00:15:49.842Z,28.2
2018-01-07T00:16:49.889Z,28.2
2018-01-07T00:17:49.776Z,28.2
2018-01-07T00:18:49.907Z,28.2
2018-01-07T00:19:52.019Z,28.2
2018-01-07T00:20:52.013Z,28.2
2018-01-07T00:21:51.894Z,28.2
2018-01-07T00:22:52.104Z,28.2
2018-01-07T00:23:52.119Z,28.2
2018-01-07T00:24:52.118Z,28.1
2018-01-07T00:25:52.149Z,28.2
2018-01-07T00:26:50.046Z,28.2
2018-01-07T00:27:50.057Z,28.2
2018-01-07T00:28:50.116Z,28.2
2018-01-07T00:29:50.340Z,28.2
2018-01-07T00:30:52.336Z,28.2
2018-01-07T00:31:50.276Z,28.2
2018-01-07T00:32:50.290Z,28.2
2018-01-07T00:33:50.311Z,28.2
2018-01-07T00:34:50.341Z,28.2
2018-01-07T00:35:50.537Z,28.2
2018-01-07T00:36:52.506Z,28.2
2018-01-07T00:37:50.616Z,28.2
2018-01-07T00:38:50.426Z,28.2
2018-01-07T00:39:52.683Z,28.2
2018-01-07T00:40:50.571Z,28.2
2018-01-07T00:41:50.811Z,28.2
2018-01-07T00:42:50.815Z,28.1
2018-01-07T00:43:50.892Z,28.2
2018-01-07T00:44:50.759Z,28.1
2018-01-07T00:45:50.996Z,28.2
2018-01-07T00:46:52.947Z,28.2
2018-01-07T00:47:52.985Z,28.2
2018-01-07T00:48:50.874Z,28.2
2018-01-07T00:49:50.921Z,28.2
2018-01-07T00:50:53.060Z,28.1
2018-01-07T00:51:52.857Z,28.2
2018-01-07T00:52:51.022Z,28.2
2018-01-07T00:53:51.358Z,28.2
2018-01-07T00:54:53.364Z,28.2
2018-01-07T00:55:51.254Z,28.1
2018-01-07T00:56:53.448Z,28.2
2018-01-07T00:57:53.572Z,28.1
2018-01-07T00:58:53.367Z,28.1
2018-01-07T00:59:53.703Z,28.1
2018-01-07T01:00:51.545Z,28.1
2018-01-07T01:01:53.759Z,28.1
2018-01-07T01:02:51.888Z,28.1
2018-01-07T01:03:51.625Z,28.1
2018-01-07T01:04:51.709Z,28.1
2018-01-07T01:05:53.698Z,28.2
2018-01-07T01:06:51.958Z,28.1
2018-01-07T01:07:53.777Z,28.1
2018-01-07T01:08:53.877Z,28.2
2018-01-07T01:09:52.192Z,28.1
2018-01-07T01:10:53.919Z,28.1
2018-01-07T01:11:51.976Z,28.1
2018-01-07T01:12:54.139Z,28.1
2018-01-07T01:13:54.004Z,28.1
2018-01-07T01:14:52.129Z,28.1
2018-01-07T01:15:52.201Z,28.2
2018-01-07T01:16:52.317Z,28.2
2018-01-07T01:17:52.536Z,28.2
2018-01-07T01:18:52.560Z,28.2
2018-01-07T01:19:54.547Z,28.1
2018-01-07T01:20:52.709Z,28.1
2018-01-07T01:21:52.503Z,28.2
2018-01-07T01:22:52.557Z,28.2
2018-01-07T01:23:52.520Z,28.2
2018-01-07T01:24:54.575Z,28.2
2018-01-07T01:25:52.873Z,28.2
2018-01-07T01:26:54.889Z,28.2
2018-01-07T01:27:52.819Z,28.2
2018-01-07T01:28:55.081Z,28.1
2018-01-07T01:29:54.877Z,28.1
2018-01-07T01:30:53.227Z,28.2
2018-01-07T01:31:54.969Z,28.1
2018-01-07T01:32:55.048Z,28.1
2018-01-07T01:33:53.424Z,28.1
2018-01-07T01:34:55.391Z,28.1
2018-01-07T01:35:55.433Z,28.1
2018-01-07T01:36:53.543Z,28.1
2018-01-07T01:37:53.387Z,28.2
2018-01-07T01:38:55.580Z,28.2
2018-01-07T01:39:55.349Z,28.1
2018-01-07T01:40:55.586Z,28.1
2018-01-07T01:41:53.734Z,28.1
2018-01-07T01:42:53.582Z,28.1
2018-01-07T01:43:55.830Z,28.2
2018-01-07T01:44:53.707Z,28.1
2018-01-07T01:45:55.909Z,28.1
2018-01-07T01:46:54.051Z,28.1
2018-01-07T01:47:53.857Z,28.1
2018-01-07T01:48:54.076Z,28.1
2018-01-07T01:49:56.107Z,28.1
2018-01-07T01:50:54.193Z,28.1
2018-01-07T01:51:54.053Z,28.1
2018-01-07T01:52:56.026Z,28.1
2018-01-07T01:53:56.052Z,28.1
2018-01-07T01:54:54.174Z,28.1
2018-01-07T01:55:54.230Z,28.1
2018-01-07T01:56:56.414Z,28.1
2018-01-07T01:57:54.448Z,28.1
2018-01-07T01:58:54.222Z,28.1
2018-01-07T01:59:56.415Z,28.1
2018-01-07T02:00:54.545Z,28.1
2018-01-07T02:01:54.385Z,28.1
2018-01-07T02:02:56.327Z,28.1
2018-01-07T02:03:54.457Z,28.1
2018-01-07T02:04:56.687Z,28.1
2018-01-07T02:05:56.451Z,28.1
2018-01-07T02:06:54.593Z,28.1
2018-01-07T02:07:54.823Z,28.1
2018-01-07T02:08:56.814Z,28.1
2018-01-07T02:09:54.825Z,28.1
2018-01-07T02:10:56.955Z,28.1
2018-01-07T02:11:54.886Z,28.1
2018-01-07T02:12:57.068Z,28.1
2018-01-07T02:13:54.931Z,28.1
2018-01-07T02:14:56.938Z,28.1
2018-01-07T02:15:55.467Z,28.1
2018-01-07T02:16:57.546Z,28.1
2018-01-07T02:17:55.884Z,28.1
2018-01-07T02:18:55.928Z,28.1
2018-01-07T02:19:55.344Z,28.1
2018-01-07T02:20:55.410Z,28.1
2018-01-07T02:21:55.915Z,28.1
2018-01-07T02:22:55.482Z,28.1
2018-01-07T02:23:55.779Z,28.1
2018-01-07T02:24:56.037Z,28.1
2018-01-07T02:25:57.906Z,28.1
2018-01-07T02:26:57.929Z,28.1
2018-01-07T02:27:55.864Z,28.1
2018-01-07T02:28:56.081Z,28.1
2018-01-07T02:29:57.891Z,28.1
2018-01-07T02:30:56.026Z,28.1
2018-01-07T02:31:56.309Z,28.1
2018-01-07T02:32:58.065Z,28.1
2018-01-07T02:33:56.181Z,28.1
2018-01-07T02:34:58.392Z,28.1
2018-01-07T02:35:56.270Z,28.1
2018-01-07T02:36:56.296Z,28.1
2018-01-07T02:37:56.597Z,28.1
2018-01-07T02:38:56.405Z,28.1
2018-01-07T02:39:56.480Z,28.1
2018-01-07T02:40:56.497Z,28.1
2018-01-07T02:41:56.579Z,28.1
2018-01-07T02:42:58.785Z,28.1
2018-01-07T02:43:56.909Z,28.1
2018-01-07T02:44:56.922Z,28.1
2018-01-07T02:45:58.698Z,28.1
2018-01-07T02:46:59.019Z,28.1
2018-01-07T02:47:56.869Z,28.1
2018-01-07T02:48:59.009Z,28.1
2018-01-07T02:49:59.398Z,28.1
2018-01-07T02:50:57.036Z,28.1
2018-01-07T02:51:57.272Z,28.1
2018-01-07T02:52:59.478Z,28.1
2018-01-07T02:53:59.208Z,28.1
2018-01-07T02:54:59.080Z,28.1
2018-01-07T02:55:57.249Z,28.1
2018-01-07T02:56:59.326Z,28.1
2018-01-07T02:57:57.392Z,28.1
2018-01-07T02:58:57.527Z,28.1
2018-01-07T02:59:57.748Z,28.1
2018-01-07T03:00:57.618Z,28.1
2018-01-07T03:01:59.585Z,28.1
2018-01-07T03:02:59.872Z,28.1
2018-01-07T03:03:57.724Z,28.1
2018-01-07T03:04:57.975Z,28.1
2018-01-07T03:05:59.701Z,28.1
2018-01-07T03:06:59.947Z,28.1
2018-01-07T03:07:59.780Z,28.1
2018-01-07T03:09:00.062Z,28.1
2018-01-07T03:09:58.174Z,28.1
2018-01-07T03:11:00.176Z,28.1
2018-01-07T03:11:58.291Z,28.1
2018-01-07T03:12:58.197Z,28.1
2018-01-07T03:13:58.487Z,28.1
2018-01-07T03:14:58.513Z,28.1
2018-01-07T03:16:00.484Z,28.1
2018-01-07T03:17:00.356Z,28.1
2018-01-07T03:18:00.335Z,28.1
2018-01-07T03:19:00.627Z,28.1
2018-01-07T03:19:58.583Z,28
2018-01-07T03:21:00.852Z,28
2018-01-07T03:21:58.712Z,28
2018-01-07T03:23:00.865Z,28
2018-01-07T03:23:58.773Z,28
2018-01-07T03:24:58.797Z,28.1
2018-01-07T03:25:59.030Z,28.1
2018-01-07T03:27:01.003Z,28.1
2018-01-07T03:27:58.989Z,28.1
2018-01-07T03:28:59.062Z,28.1
2018-01-07T03:30:01.137Z,28
2018-01-07T03:30:59.257Z,28.1
2018-01-07T03:31:59.138Z,28.1
2018-01-07T03:32:59.392Z,28.1
2018-01-07T03:33:59.403Z,28.1
2018-01-07T03:34:59.246Z,28.1
2018-01-07T03:35:59.459Z,28.1
2018-01-07T03:37:01.438Z,28.1
2018-01-07T03:37:59.364Z,28.1
2018-01-07T03:38:59.394Z,28.1
2018-01-07T03:40:01.392Z,28.1
2018-01-07T03:40:59.766Z,28.1
2018-01-07T03:42:01.769Z,28.1
2018-01-07T03:42:59.657Z,28.1
2018-01-07T03:43:59.668Z,28.1
2018-01-07T03:45:01.831Z,28
2018-01-07T03:46:01.892Z,28.1
2018-01-07T03:47:00.005Z,28.1
2018-01-07T03:48:00.163Z,28.1
2018-01-07T03:49:01.854Z,28.1
2018-01-07T03:50:00.129Z,28.1
2018-01-07T03:51:00.232Z,28.1
2018-01-07T03:52:00.074Z,28.1
2018-01-07T03:53:00.287Z,28.1
2018-01-07T03:54:00.364Z,28.1
2018-01-07T03:55:02.341Z,28.1
2018-01-07T03:56:00.220Z,28.1
2018-01-07T03:57:00.225Z,28
2018-01-07T03:58:00.365Z,28
2018-01-07T03:59:02.331Z,28
2018-01-07T04:00:02.588Z,28
2018-01-07T04:01:00.518Z,28
2018-01-07T04:02:00.531Z,28
2018-01-07T04:03:00.665Z,28
2018-01-07T04:04:00.766Z,28
2018-01-07T04:05:01.072Z,28
2018-01-07T04:06:01.105Z,28
2018-01-07T04:07:00.928Z,28
2018-01-07T04:08:03.097Z,28
2018-01-07T04:09:01.208Z,28
2018-01-07T04:10:01.018Z,28
2018-01-07T04:11:01.279Z,28
2018-01-07T04:12:03.223Z,28
2018-01-07T04:13:03.058Z,28
2018-01-07T04:14:01.460Z,28
2018-01-07T04:15:03.332Z,28
2018-01-07T04:16:01.442Z,28
2018-01-07T04:17:01.282Z,28
2018-01-07T04:18:01.288Z,28
2018-01-07T04:19:03.471Z,28
2018-01-07T04:20:01.387Z,28
2018-01-07T04:21:01.459Z,28
2018-01-07T04:22:01.664Z,28
2018-01-07T04:23:01.762Z,28
2018-01-07T04:24:03.712Z,28
2018-01-07T04:25:01.709Z,28
2018-01-07T04:26:03.902Z,28
2018-01-07T04:27:03.715Z,28
2018-01-07T04:28:01.784Z,28
2018-01-07T04:29:02.072Z,28
2018-01-07T04:30:02.126Z,28
2018-01-07T04:31:04.119Z,28
2018-01-07T04:32:03.904Z,28
2018-01-07T04:33:04.130Z,28
2018-01-07T04:34:02.079Z,28
2018-01-07T04:35:02.343Z,28
2018-01-07T04:36:02.245Z,28
2018-01-07T04:37:02.398Z,28
2018-01-07T04:38:02.438Z,28
2018-01-07T04:39:04.393Z,28
2018-01-07T04:40:02.483Z,28
2018-01-07T04:41:02.334Z,28
2018-01-07T04:42:04.485Z,28
2018-01-07T04:43:04.542Z,28
2018-01-07T04:44:04.380Z,28
2018-01-07T04:45:02.560Z,28
2018-01-07T04:46:02.567Z,28
2018-01-07T04:47:02.827Z,28
2018-01-07T04:48:02.568Z,28
2018-01-07T04:49:02.624Z,28
2018-01-07T04:50:04.811Z,28
2018-01-07T04:51:02.742Z,28
2018-01-07T04:52:04.692Z,28
2018-01-07T04:53:02.853Z,28
2018-01-07T04:54:04.790Z,28
2018-01-07T04:55:02.998Z,28
2018-01-07T04:56:03.195Z,28
2018-01-07T04:57:03.067Z,28
2018-01-07T04:58:05.206Z,28
2018-01-07T04:59:03.354Z,28
2018-01-07T05:00:05.443Z,28
2018-01-07T05:01:05.442Z,28
2018-01-07T05:02:03.370Z,28
2018-01-07T05:03:05.295Z,28
2018-01-07T05:04:05.641Z,28
2018-01-07T05:05:05.424Z,28
2018-01-07T05:06:05.696Z,28
2018-01-07T05:07:05.517Z,28
2018-01-07T05:08:05.805Z,28
2018-01-07T05:09:03.888Z,28
2018-01-07T05:10:03.884Z,28
2018-01-07T05:11:03.937Z,28
2018-01-07T05:12:05.935Z,28
2018-01-07T05:13:03.770Z,28
2018-01-07T05:14:04.128Z,28
2018-01-07T05:15:03.969Z,28
2018-01-07T05:16:04.039Z,28
2018-01-07T05:17:04.305Z,28
2018-01-07T05:18:04.347Z,28
2018-01-07T05:19:04.346Z,28
2018-01-07T05:20:04.233Z,28
2018-01-07T05:21:06.403Z,28
2018-01-07T05:22:04.574Z,28
2018-01-07T05:23:04.409Z,28
2018-01-07T05:24:06.374Z,28
2018-01-07T05:25:06.468Z,28
2018-01-07T05:26:04.540Z,28
2018-01-07T05:27:04.542Z,28
2018-01-07T05:28:06.545Z,28
2018-01-07T05:29:06.584Z,28
2018-01-07T05:30:06.617Z,28
2018-01-07T05:31:06.885Z,28
2018-01-07T05:32:06.957Z,27.9
2018-01-07T05:33:04.840Z,28
2018-01-07T05:34:05.105Z,28
2018-01-07T05:35:06.831Z,28
2018-01-07T05:36:04.992Z,28
2018-01-07T05:37:06.977Z,28
2018-01-07T05:38:05.279Z,28
2018-01-07T05:39:05.334Z,28
2018-01-07T05:40:05.164Z,28
2018-01-07T05:41:07.618Z,27.9
2018-01-07T05:42:05.256Z,27.9
2018-01-07T05:43:07.408Z,27.9
2018-01-07T05:44:05.271Z,27.9
2018-01-07T05:45:05.590Z,28
2018-01-07T05:46:05.349Z,28
2018-01-07T05:47:05.552Z,28
2018-01-07T05:48:05.410Z,28
2018-01-07T05:49:05.451Z,28
2018-01-07T05:50:05.506Z,28
2018-01-07T05:51:07.449Z,28
2018-01-07T05:52:05.624Z,28
2018-01-07T05:53:05.697Z,28
2018-01-07T05:54:05.986Z,28
2018-01-07T05:55:07.962Z,28
2018-01-07T05:56:05.900Z,28
2018-01-07T05:57:08.101Z,27.9
2018-01-07T05:58:05.971Z,28
2018-01-07T05:59:05.969Z,27.9
2018-01-07T06:00:08.203Z,27.9
2018-01-07T06:01:06.351Z,27.9
2018-01-07T06:02:08.323Z,27.9
2018-01-07T06:03:06.293Z,27.9
2018-01-07T06:04:06.289Z,27.9
2018-01-07T06:05:08.530Z,27.9
2018-01-07T06:06:06.405Z,27.9
2018-01-07T06:07:06.465Z,27.9
2018-01-07T06:08:06.742Z,27.9
2018-01-07T06:09:06.889Z,27.9
2018-01-07T06:10:08.585Z,27.9
2018-01-07T06:11:06.873Z,27.9
2018-01-07T06:12:06.705Z,27.9
2018-01-07T06:13:08.689Z,27.9
2018-01-07T06:14:06.820Z,27.9
2018-01-07T06:15:09.033Z,28
2018-01-07T06:16:08.955Z,27.9
2018-01-07T06:17:07.100Z,28
2018-01-07T06:18:06.946Z,28
2018-01-07T06:19:07.128Z,27.9
2018-01-07T06:20:09.179Z,27.9
2018-01-07T06:21:06.998Z,27.9
2018-01-07T06:22:07.026Z,27.9
2018-01-07T06:23:09.254Z,27.9
2018-01-07T06:24:07.161Z,27.9
2018-01-07T06:25:07.157Z,27.9
2018-01-07T06:26:09.327Z,27.9
2018-01-07T06:27:07.543Z,27.9
2018-01-07T06:28:09.277Z,27.9
2018-01-07T06:29:09.495Z,27.9
2018-01-07T06:30:07.426Z,27.9
2018-01-07T06:31:07.545Z,27.9
2018-01-07T06:32:07.659Z,27.9
2018-01-07T06:33:09.761Z,27.9
2018-01-07T06:34:07.927Z,27.9
2018-01-07T06:35:07.684Z,27.9
2018-01-07T06:36:09.692Z,27.9
2018-01-07T06:37:07.797Z,27.9
2018-01-07T06:38:07.921Z,27.9
2018-01-07T06:39:10.114Z,27.9
2018-01-07T06:40:08.061Z,27.9
2018-01-07T06:41:08.126Z,27.9
2018-01-07T06:42:10.172Z,27.9
2018-01-07T06:43:08.297Z,27.9
2018-01-07T06:44:08.357Z,27.9
2018-01-07T06:45:08.346Z,27.9
2018-01-07T06:46:10.520Z,27.9
2018-01-07T06:47:08.434Z,27.9
2018-01-07T06:48:08.660Z,27.9
2018-01-07T06:49:08.706Z,27.9
2018-01-07T06:50:08.798Z,27.9
2018-01-07T06:51:10.527Z,27.9
2018-01-07T06:52:08.809Z,27.9
2018-01-07T06:53:10.594Z,27.9
2018-01-07T06:54:08.785Z,27.9
2018-01-07T06:55:08.820Z,27.9
2018-01-07T06:56:10.994Z,27.9
2018-01-07T06:57:08.887Z,27.9
2018-01-07T06:58:11.043Z,27.9
2018-01-07T06:59:11.134Z,27.9
2018-01-07T07:00:09.055Z,27.9
2018-01-07T07:01:11.211Z,27.9
2018-01-07T07:02:11.111Z,27.9
2018-01-07T07:03:09.218Z,27.9
2018-01-07T07:04:09.437Z,27.9
2018-01-07T07:05:09.304Z,27.9
2018-01-07T07:06:09.325Z,27.9
2018-01-07T07:07:09.603Z,27.9
2018-01-07T07:08:09.405Z,27.9
2018-01-07T07:09:11.613Z,27.9
2018-01-07T07:10:09.525Z,27.9
2018-01-07T07:11:09.616Z,27.9
2018-01-07T07:12:09.913Z,27.9
2018-01-07T07:13:10.030Z,27.9
2018-01-07T07:14:09.974Z,27.9
2018-01-07T07:15:09.791Z,27.9
2018-01-07T07:16:11.994Z,27.9
2018-01-07T07:17:09.912Z,27.9
2018-01-07T07:18:12.116Z,27.9
2018-01-07T07:19:12.140Z,27.9
2018-01-07T07:20:12.024Z,27.9
2018-01-07T07:21:10.306Z,27.9
2018-01-07T07:22:10.363Z,27.9
2018-01-07T07:23:12.277Z,27.9
2018-01-07T07:24:10.408Z,27.9
2018-01-07T07:25:10.234Z,27.9
2018-01-07T07:26:10.276Z,27.9
2018-01-07T07:27:12.232Z,27.9
2018-01-07T07:28:12.266Z,27.9
2018-01-07T07:29:10.451Z,27.9
2018-01-07T07:30:10.509Z,27.8
2018-01-07T07:31:10.763Z,27.9
2018-01-07T07:32:10.794Z,27.8
2018-01-07T07:33:12.525Z,27.9
2018-01-07T07:34:12.793Z,27.9
2018-01-07T07:35:10.760Z,27.9
2018-01-07T07:36:10.839Z,27.9
2018-01-07T07:37:10.886Z,27.9
2018-01-07T07:38:10.972Z,27.9
2018-01-07T07:39:11.199Z,27.9
2018-01-07T07:40:13.189Z,27.9
2018-01-07T07:41:13.272Z,27.8
2018-01-07T07:42:13.361Z,27.8
2018-01-07T07:43:13.435Z,27.8
2018-01-07T07:44:11.518Z,27.8
2018-01-07T07:45:11.532Z,27.8
2018-01-07T07:46:11.624Z,27.8
2018-01-07T07:47:11.468Z,27.8
2018-01-07T07:48:13.621Z,27.8
2018-01-07T07:49:11.562Z,27.8
2018-01-07T07:50:11.781Z,27.8
2018-01-07T07:51:11.813Z,27.8
2018-01-07T07:52:13.554Z,27.9
2018-01-07T07:53:11.700Z,27.9
2018-01-07T07:54:13.678Z,27.8
2018-01-07T07:55:11.822Z,27.9
2018-01-07T07:56:11.830Z,27.9
2018-01-07T07:57:12.152Z,27.8
2018-01-07T07:58:12.208Z,27.9
2018-01-07T07:59:14.234Z,27.9
2018-01-07T08:00:12.140Z,27.8
2018-01-07T08:01:12.151Z,27.8
2018-01-07T08:02:14.363Z,27.8
2018-01-07T08:03:14.437Z,27.8
2018-01-07T08:04:14.466Z,27.8
2018-01-07T08:05:14.344Z,27.8
2018-01-07T08:06:12.660Z,27.8
2018-01-07T08:07:14.657Z,27.8
2018-01-07T08:08:12.624Z,27.8
2018-01-07T08:09:14.626Z,27.8
2018-01-07T08:10:12.758Z,27.8
2018-01-07T08:11:12.745Z,27.8
2018-01-07T08:12:13.030Z,27.8
2018-01-07T08:13:14.797Z,27.8
2018-01-07T08:14:15.059Z,27.8
2018-01-07T08:15:12.928Z,27.8
2018-01-07T08:16:15.165Z,27.8
2018-01-07T08:17:15.004Z,27.8
2018-01-07T08:18:13.286Z,27.8
2018-01-07T08:19:13.121Z,27.8
2018-01-07T08:20:13.122Z,27.8
2018-01-07T08:21:13.215Z,27.8
2018-01-07T08:22:13.218Z,27.8
2018-01-07T08:23:13.441Z,27.8
2018-01-07T08:24:13.244Z,27.8
2018-01-07T08:25:13.256Z,27.8
2018-01-07T08:26:15.430Z,27.8
2018-01-07T08:27:15.301Z,27.8
2018-01-07T08:28:13.642Z,27.8
2018-01-07T08:29:13.639Z,27.8
2018-01-07T08:30:13.759Z,27.8
2018-01-07T08:31:13.725Z,27.8
2018-01-07T08:32:13.793Z,27.7
2018-01-07T08:33:13.950Z,27.7
2018-01-07T08:34:15.894Z,27.8
2018-01-07T08:35:15.709Z,27.7
2018-01-07T08:36:13.864Z,27.7
2018-01-07T08:37:13.912Z,27.7
2018-01-07T08:38:14.017Z,27.7
2018-01-07T08:39:14.073Z,27.7
2018-01-07T08:40:16.264Z,27.7
2018-01-07T08:41:14.378Z,27.7
2018-01-07T08:42:16.332Z,27.7
2018-01-07T08:43:14.216Z,27.7
2018-01-07T08:44:16.455Z,27.7
2018-01-07T08:45:16.461Z,27.7
2018-01-07T08:46:16.453Z,27.7
2018-01-07T08:47:14.360Z,27.7
2018-01-07T08:48:16.584Z,27.7
2018-01-07T08:49:14.456Z,27.7
2018-01-07T08:50:16.636Z,27.7
2018-01-07T08:51:14.546Z,27.7
2018-01-07T08:52:14.626Z,27.7
2018-01-07T08:53:14.585Z,27.7
2018-01-07T08:54:16.584Z,27.7
2018-01-07T08:55:14.991Z,27.7
2018-01-07T08:56:16.779Z,27.7
2018-01-07T08:57:14.794Z,27.7
2018-01-07T08:58:16.815Z,27.7
2018-01-07T08:59:14.956Z,27.7
2018-01-07T09:00:15.192Z,27.6
2018-01-07T09:01:17.187Z,27.6
2018-01-07T09:02:15.236Z,27.6
2018-01-07T09:03:15.360Z,27.6
2018-01-07T09:04:17.173Z,27.6
2018-01-07T09:05:17.378Z,27.6
2018-01-07T09:06:15.336Z,27.6
2018-01-07T09:07:15.384Z,27.6
2018-01-07T09:08:17.546Z,27.6
2018-01-07T09:09:17.429Z,27.6
2018-01-07T09:10:15.537Z,27.6
2018-01-07T09:11:15.584Z,27.6
2018-01-07T09:12:15.807Z,27.6
2018-01-07T09:13:15.680Z,27.6
2018-01-07T09:14:15.668Z,27.6
2018-01-07T09:15:17.692Z,27.6
2018-01-07T09:16:15.851Z,27.6
2018-01-07T09:17:16.112Z,27.6
2018-01-07T09:18:15.944Z,27.6
2018-01-07T09:19:17.889Z,27.6
2018-01-07T09:20:17.941Z,27.6
2018-01-07T09:21:16.278Z,27.6
2018-01-07T09:22:16.180Z,27.6
2018-01-07T09:23:18.107Z,27.6
2018-01-07T09:24:16.492Z,27.6
2018-01-07T09:25:16.342Z,27.6
2018-01-07T09:26:18.269Z,27.6
2018-01-07T09:27:16.357Z,27.6
2018-01-07T09:28:16.641Z,27.6
2018-01-07T09:29:18.693Z,27.6
2018-01-07T09:30:16.665Z,27.6
2018-01-07T09:31:16.888Z,27.6
2018-01-07T09:32:18.655Z,27.5
2018-01-07T09:33:18.957Z,27.5
2018-01-07T09:34:19.036Z,27.5
2018-01-07T09:35:16.844Z,27.5
2018-01-07T09:36:16.887Z,27.5
2018-01-07T09:37:17.154Z,27.5
2018-01-07T09:38:18.886Z,27.5
2018-01-07T09:39:16.980Z,27.5
2018-01-07T09:40:18.971Z,27.5
2018-01-07T09:41:18.980Z,27.5
2018-01-07T09:42:17.112Z,27.5
2018-01-07T09:43:17.342Z,27.5
2018-01-07T09:44:17.362Z,27.5
2018-01-07T09:45:17.338Z,27.5
2018-01-07T09:46:19.452Z,27.5
2018-01-07T09:47:17.356Z,27.4
2018-01-07T09:48:17.404Z,27.4
2018-01-07T09:49:17.435Z,27.4
2018-01-07T09:50:19.586Z,27.4
2018-01-07T09:51:17.522Z,27.4
2018-01-07T09:52:17.756Z,27.4
2018-01-07T09:53:17.809Z,27.4
2018-01-07T09:54:17.902Z,27.4
2018-01-07T09:55:19.864Z,27.4
2018-01-07T09:56:19.698Z,27.4
2018-01-07T09:57:18.036Z,27.4
2018-01-07T09:58:20.010Z,27.4
2018-01-07T09:59:17.870Z,27.4
2018-01-07T10:00:20.036Z,27.4
2018-01-07T10:01:17.888Z,27.4
2018-01-07T10:02:17.910Z,27.4
2018-01-07T10:03:17.941Z,27.4
2018-01-07T10:04:17.970Z,27.4
2018-01-07T10:05:20.168Z,27.4
2018-01-07T10:06:18.141Z,27.4
2018-01-07T10:07:20.244Z,27.5
2018-01-07T10:08:18.211Z,27.4
2018-01-07T10:09:18.237Z,27.4
2018-01-07T10:10:18.263Z,27.4
2018-01-07T10:11:20.514Z,27.4
2018-01-07T10:12:20.572Z,27.4
2018-01-07T10:13:20.642Z,27.4
2018-01-07T10:14:18.539Z,27.4
2018-01-07T10:15:18.679Z,27.4
2018-01-07T10:16:20.839Z,27.4
2018-01-07T10:17:18.715Z,27.4
2018-01-07T10:18:20.887Z,27.4
2018-01-07T10:19:18.762Z,27.3
2018-01-07T10:20:20.901Z,27.3
2018-01-07T10:21:18.982Z,27.3
2018-01-07T10:22:21.026Z,27.3
2018-01-07T10:23:18.912Z,27.3
2018-01-07T10:24:18.925Z,27.3
2018-01-07T10:25:19.117Z,27.3
2018-01-07T10:26:19.044Z,27.3
2018-01-07T10:27:21.205Z,27.3
2018-01-07T10:28:19.097Z,27.3
2018-01-07T10:29:19.056Z,27.3
2018-01-07T10:30:19.130Z,27.3
2018-01-07T10:31:19.111Z,27.3
2018-01-07T10:32:21.075Z,27.3
2018-01-07T10:33:21.399Z,27.3
2018-01-07T10:34:19.324Z,27.2
2018-01-07T10:35:19.487Z,27.2
2018-01-07T10:36:21.250Z,27.2
2018-01-07T10:37:21.499Z,27.3
2018-01-07T10:38:19.420Z,27.2
2018-01-07T10:39:19.642Z,27.2
2018-01-07T10:40:19.482Z,27.2
2018-01-07T10:41:21.425Z,27.2
2018-01-07T10:42:19.762Z,27.2
2018-01-07T10:43:19.771Z,27.2
2018-01-07T10:44:21.748Z,27.2
2018-01-07T10:45:19.712Z,27.2
2018-01-07T10:46:21.932Z,27.2
2018-01-07T10:47:21.889Z,27.2
2018-01-07T10:48:21.991Z,27.2
2018-01-07T10:49:19.917Z,27.1
2018-01-07T10:50:22.095Z,27.1
2018-01-07T10:51:21.929Z,27.1
2018-01-07T10:52:20.083Z,27.1
2018-01-07T10:53:20.088Z,27.1
2018-01-07T10:54:22.070Z,27.1
2018-01-07T10:55:20.209Z,27.1
2018-01-07T10:56:20.468Z,27.1
2018-01-07T10:57:22.141Z,27.1
2018-01-07T10:58:22.281Z,27.1
2018-01-07T10:59:20.624Z,27.1
2018-01-07T11:00:22.659Z,27.1
2018-01-07T11:01:22.699Z,27.1
2018-01-07T11:02:22.483Z,27.1
2018-01-07T11:03:22.757Z,27.1
2018-01-07T11:04:20.613Z,27.1
2018-01-07T11:05:20.644Z,27.1
2018-01-07T11:06:20.791Z,27.1
2018-01-07T11:07:22.549Z,27.1
2018-01-07T11:08:20.924Z,27.1
2018-01-07T11:09:20.778Z,27.1
2018-01-07T11:10:20.776Z,27.1
2018-01-07T11:11:20.803Z,27.1
2018-01-07T11:12:22.957Z,27.1
2018-01-07T11:13:22.782Z,27.1
2018-01-07T11:14:23.048Z,27.1
2018-01-07T11:15:20.981Z,27.1
2018-01-07T11:16:20.997Z,27.1
2018-01-07T11:17:21.273Z,27.1
2018-01-07T11:18:21.118Z,27.2
2018-01-07T11:19:21.135Z,27.2
2018-01-07T11:20:23.291Z,27.2
2018-01-07T11:21:21.274Z,27.1
2018-01-07T11:22:21.325Z,27.1
2018-01-07T11:23:21.622Z,27.1
2018-01-07T11:24:21.690Z,27.1
2018-01-07T11:25:21.688Z,27.1
2018-01-07T11:26:21.541Z,27.1
2018-01-07T11:27:21.744Z,27.1
2018-01-07T11:28:21.544Z,27.1
2018-01-07T11:29:21.661Z,27.1
2018-01-07T11:30:21.925Z,27.1
2018-01-07T11:31:21.719Z,27.2
2018-01-07T11:32:21.773Z,27.2
2018-01-07T11:33:21.795Z,27.2
2018-01-07T11:34:23.779Z,27.2
2018-01-07T11:35:22.009Z,27.2
2018-01-07T11:36:21.916Z,27.2
2018-01-07T11:37:21.994Z,27.1
2018-01-07T11:38:22.018Z,27.1
2018-01-07T11:39:22.044Z,27.1
2018-01-07T11:40:22.088Z,27.1
2018-01-07T11:41:22.161Z,27.1
2018-01-07T11:42:22.140Z,27.1
2018-01-07T11:43:22.375Z,27.1
2018-01-07T11:44:22.425Z,27.1
2018-01-07T11:45:24.417Z,27.1
2018-01-07T11:46:24.473Z,27.1
2018-01-07T11:47:22.416Z,27.1
2018-01-07T11:48:24.546Z,27
2018-01-07T11:49:24.631Z,27.1
2018-01-07T11:50:22.538Z,27.1
2018-01-07T11:51:24.698Z,27.1
2018-01-07T11:52:22.524Z,27.1
2018-01-07T11:53:24.680Z,27.1
2018-01-07T11:54:24.806Z,27.1
2018-01-07T11:55:22.762Z,27
2018-01-07T11:56:22.767Z,27.1
2018-01-07T11:57:22.853Z,27.1
2018-01-07T11:58:23.117Z,27.1
2018-01-07T11:59:22.893Z,27.1
2018-01-07T12:00:23.196Z,27.1
2018-01-07T12:01:25.167Z,27
2018-01-07T12:02:25.161Z,27
2018-01-07T12:03:23.031Z,27
2018-01-07T12:04:23.120Z,27
2018-01-07T12:05:25.294Z,27
2018-01-07T12:06:23.400Z,27
2018-01-07T12:07:25.129Z,27
2018-01-07T12:08:25.236Z,26.9
2018-01-07T12:09:23.613Z,26.9
2018-01-07T12:10:23.406Z,26.9
2018-01-07T12:11:23.445Z,26.9
2018-01-07T12:12:23.721Z,26.9
2018-01-07T12:13:23.604Z,26.9
2018-01-07T12:14:23.537Z,26.9
2018-01-07T12:15:23.563Z,26.9
2018-01-07T12:16:23.790Z,26.8
2018-01-07T12:17:23.897Z,26.9
2018-01-07T12:18:23.799Z,26.8
2018-01-07T12:19:25.760Z,26.8
2018-01-07T12:20:25.791Z,26.8
2018-01-07T12:21:23.965Z,26.8
2018-01-07T12:22:25.884Z,26.8
2018-01-07T12:23:26.125Z,26.8
2018-01-07T12:24:24.131Z,26.8
2018-01-07T12:25:24.153Z,26.8
2018-01-07T12:26:24.256Z,26.8
2018-01-07T12:27:24.534Z,26.8
2018-01-07T12:28:26.516Z,26.8
2018-01-07T12:29:26.314Z,26.8
2018-01-07T12:30:26.331Z,26.8
2018-01-07T12:31:26.589Z,26.8
2018-01-07T12:32:24.695Z,26.8
2018-01-07T12:33:24.714Z,26.8
2018-01-07T12:34:24.780Z,26.9
2018-01-07T12:35:24.795Z,26.9
2018-01-07T12:36:26.761Z,26.9
2018-01-07T12:37:24.626Z,26.9
2018-01-07T12:38:24.639Z,26.9
2018-01-07T12:39:24.692Z,26.9
2018-01-07T12:40:26.700Z,26.9
2018-01-07T12:41:26.997Z,26.9
2018-01-07T12:42:24.930Z,26.9
2018-01-07T12:43:25.197Z,26.9
2018-01-07T12:44:27.190Z,26.9
2018-01-07T12:45:25.337Z,26.9
2018-01-07T12:46:25.124Z,26.9
2018-01-07T12:47:25.132Z,26.9
2018-01-07T12:48:25.442Z,27
2018-01-07T12:49:27.235Z,27
2018-01-07T12:50:27.500Z,27
2018-01-07T12:51:25.558Z,27
2018-01-07T12:52:25.410Z,27
2018-01-07T12:53:27.583Z,27
2018-01-07T12:54:25.692Z,27
2018-01-07T12:55:27.655Z,27
2018-01-07T12:56:25.768Z,27
2018-01-07T12:57:25.590Z,27
2018-01-07T12:58:25.837Z,27
2018-01-07T12:59:27.800Z,27
2018-01-07T13:00:27.851Z,27
2018-01-07T13:01:25.947Z,27
2018-01-07T13:02:25.962Z,27
2018-01-07T13:03:27.915Z,27
2018-01-07T13:04:25.859Z,27
2018-01-07T13:05:25.880Z,27
2018-01-07T13:06:25.962Z,27
2018-01-07T13:07:25.995Z,27
2018-01-07T13:08:26.011Z,27
2018-01-07T13:09:27.944Z,27
2018-01-07T13:10:26.290Z,27
2018-01-07T13:11:26.060Z,27
2018-01-07T13:12:26.322Z,27
2018-01-07T13:13:26.106Z,27.1
2018-01-07T13:14:26.397Z,27
2018-01-07T13:15:28.423Z,27
2018-01-07T13:16:26.502Z,27
2018-01-07T13:17:26.568Z,27
2018-01-07T13:18:26.612Z,27
2018-01-07T13:19:26.442Z,27.1
2018-01-07T13:20:28.628Z,27
2018-01-07T13:21:26.504Z,27.1
2018-01-07T13:22:26.707Z,27
2018-01-07T13:23:26.797Z,27
2018-01-07T13:24:26.615Z,27
2018-01-07T13:25:26.908Z,27
2018-01-07T13:26:26.958Z,27
2018-01-07T13:27:26.822Z,27.1
2018-01-07T13:28:29.030Z,27.1
2018-01-07T13:29:26.865Z,27.1
2018-01-07T13:30:28.820Z,27.1